Have a Safe July 4th! 

Flight Track Log - Related Links

Times and Time Zones

All times are in EDT time to prevent confusion due to time zone crossing. See the JIA2442 flight status page for this flight to view local times or setup timezone preferences in your user account.

Time Position Orientation Groundspeed Altitude Reporting Facility
EDT Latitude Longitude Course Direction KTS MPH feet Rate Location/Type
Sun 02:41:15 PM 34.1900 -79.7033 310° West  Level FlightAware Approximate
Sun 02:42:15 PM 34.2326 -79.6713 289° West  Level FlightAware Approximate
Sun 02:43:58 PM 34.2792 -79.8317 346° North 256 295 6,600  Level Jacksonville Center
Sun 02:44:58 PM 34.3464 -79.8519 322° Northwest 256 295 9,200 2,150 Climbing Jacksonville Center
Sun 02:45:58 PM 34.4061 -79.9078 308° West 256 295 10,900 900 Climbing Jacksonville Center
Sun 02:46:58 PM 34.4625 -79.9942 309° West 281 323 11,000 57 Climbing Jacksonville Center
Sun 02:47:44 PM 34.5003 -80.0508 309° West 350 403 11,000  Level FAA TRACON SMA TRACON (SMA)
Sun 02:48:32 PM 34.5622 -80.1447 309° West 371 427 11,000  Level FAA TRACON SMA TRACON (SMA)
Sun 02:49:03 PM 34.5911 -80.1878 310° West 364 419 11,000  Level FAA TRACON SMA TRACON (SMA)
Sun 02:49:44 PM 34.6336 -80.2503 312° West 352 405 11,000  Level FAA TRACON SMA TRACON (SMA)
Sun 02:50:24 PM 34.6783 -80.3108 314° West 348 400 11,000  Level FAA TRACON SMA TRACON (SMA)
Sun 02:51:04 PM 34.7208 -80.3636 315° West 353 406 11,000  Level FAA TRACON SMA TRACON (SMA)
Sun 02:51:47 PM 34.7764 -80.4317 314° West 357 411 11,000  Level FAA TRACON SMA TRACON (SMA)
Sun 02:52:25 PM 34.8181 -80.4844 315° West 359 413 11,000  Level FAA TRACON SMA TRACON (SMA)
Sun 02:53:05 PM 34.8625 -80.5392 315° West 364 419 11,000  Level FAA TRACON SMA TRACON (SMA)
Sun 02:53:45 PM 34.9114 -80.5997 314° West 362 417 11,000  Level FAA TRACON SMA TRACON (SMA)
Sun 02:54:25 PM 34.9592 -80.6597 314° West 359 413 11,000 -375 Level FAA TRACON SMA TRACON (SMA)
Sun 02:55:05 PM 34.9994 -80.7100 315° West 341 392 10,500 -1,050 Descending FAA TRACON SMA TRACON (SMA)
Sun 02:55:45 PM 35.0397 -80.7597 318° Northwest 300 345 9,600 -1,084 Descending FAA TRACON SMA TRACON (SMA)
Sun 02:56:28 PM 35.0792 -80.8039 350° North 280 322 9,000 -450 Descending FAA TRACON SMA TRACON (SMA)
Sun 02:57:05 PM 35.1339 -80.8153 359° North 292 336 9,000 -237 Level FAA TRACON SMA TRACON (SMA)
Sun 02:57:44 PM 35.1842 -80.8167 36° Northeast 295 339 8,700 -1,139 Descending FAA TRACON SMA TRACON (SMA)
Sun 02:58:24 PM 35.2292 -80.7761 50° Northeast 299 344 7,500 -2,025 Descending FAA TRACON SMA TRACON (SMA)
Sun 02:59:04 PM 35.2661 -80.7228 30° Northeast 297 342 6,000 -1,778 Descending FAA TRACON SMA TRACON (SMA)
Sun 02:59:45 PM 35.3078 -80.6936 30° Northeast 283 326 5,100 -1,317 Descending FAA TRACON SMA TRACON (SMA)

Login

Don't have an account? Register now (free) for customized features, flight alerts, and more!